• Join FlightAware (Why Join?)
  • Login
  • US Flag 
04:32PM EST


 

Airport Tracker/Info


-or-


 

Live Flight TrackerFlight Track Log ✈ JBU6411 ✈ 07-Mar-2014 ✈ KLCQ - KMCO

Flight Track Log - Related Links

Times and Time Zones

All times are in EST time to prevent confusion due to time zone crossing. See the JBU6411 flight status page for this flight to view local times or setup timezone preferences in your user account.

Time Position Orientation Groundspeed Altitude Reporting Facility
EST Latitude Longitude Course Direction KTS MPH feet Rate Location/Type
11:54PM 30.0950 -82.6142 160° South 366 421 3,900  Level Jacksonville Center
11:55PM 30.0322 -82.5878 160° South 340 391 7,400 3,500 Climbing Jacksonville Center
11:56PM 29.9444 -82.5475 158° South 319 367 10,900 2,600 Climbing Jacksonville Center
11:57PM 29.8461 -82.4878 152° Southeast 346 398 12,600 2,550 Climbing Jacksonville Center
11:58PM 29.7417 -82.4286 154° Southeast 389 448 16,000 2,150 Climbing Jacksonville Center
11:59PM 29.6392 -82.3669 152° Southeast 413 475 16,900 450 Climbing Jacksonville Center
12:00AM 29.5344 -82.3078 154° Southeast 420 483 16,900 -500 Level Jacksonville Center
12:01AM 29.4361 -82.2489 152° Southeast 410 472 15,900 -1,000 Descending Jacksonville Center
12:02AM 29.3378 -82.1922 153° Southeast 404 465 14,900 -1,050 Descending Jacksonville Center
12:03AM 29.2414 -82.1381 154° Southeast 398 458 13,800 -1,250 Descending Jacksonville Center
12:04AM 29.1450 -82.0842 154° Southeast 393 452 12,400 -1,250 Descending Jacksonville Center
12:05AM 29.0528 -82.0303 153° Southeast 382 440 11,300 -750 Descending Jacksonville Center
12:06AM 28.9606 -81.9767 153° Southeast 382 440 10,900 -200 Descending Jacksonville Center
12:07AM 28.8703 -81.9158 149° Southeast 382 440 10,900 48 Level Jacksonville Center
12:08AM 28.8000 -81.8000 125° Southeast 384 442 11,000 48 Climbing Orlando TRACON
12:09AM 28.7500 -81.7000 120° Southeast 385 443 11,000 -48 Level Orlando TRACON
12:10AM 28.6833 -81.5833 123° Southeast 345 397 10,900 -1,000 Descending Orlando TRACON
12:11AM 28.6333 -81.4833 120° Southeast 339 390 8,900 -2,000 Descending Orlando TRACON
12:12AM 28.5833 -81.4167 130° Southeast 298 343 6,900 -1,800 Descending Orlando TRACON
12:13AM 28.5000 -81.4167 180° South 280 322 5,300 -950 Descending Orlando TRACON
12:14AM 28.4333 -81.4167 180° South 247 284 5,000 -550 Descending Orlando TRACON
12:15AM 28.3667 -81.4167 180° South 232 267 4,200 -887 Descending Orlando TRACON
12:16AM 28.3167 -81.4167 180° South 204 235 3,300 -730 Descending Orlando TRACON
12:17AM 28.2667 -81.4000 164° South 168 193 2,800 -650 Descending Orlando TRACON
12:18AM 28.2667 -81.3500 90° East 154 177 2,000 -400 Descending Orlando TRACON
12:19AM 28.3000 -81.3167 41° Northeast 121 139 2,000 -50 Level Orlando TRACON
12:20AM 28.3333 -81.3167 360° North 117 135 1,900 -400 Descending Orlando TRACON
12:21AM 28.3667 -81.3167 360° North 117 135 1,200 -650 Descending Orlando TRACON
12:22AM 28.4000 -81.3167 360° North 118 136 600 -600 Descending Orlando TRACON
12:24AM 28.4167 -81.3000 24° Northeast  Level FlightAware Approximate
12:31AM 28.4294 -81.3090 24° Northeast  Level Estimated
12:32AM 28.4294 -81.3090 24° Northeast  Level Estimated
12:33AM 28.4294 -81.3090 24° Northeast  Level Estimated
12:34AM 28.4294 -81.3090 24° Northeast  Level Estimated